sensor_id;sensor_type;location;lat;lon;timestamp;pressure;altitude;pressure_sealevel;temperature;humidity
81913;BME280;71377;50.698;7.164;2023-12-20T00:01:02;100973.03;;;7.99;100.00
81913;BME280;71377;50.698;7.164;2023-12-20T00:03:29;100978.16;;;8.05;100.00
81913;BME280;71377;50.698;7.164;2023-12-20T00:06:07;100972.28;;;7.94;100.00
81913;BME280;71377;50.698;7.164;2023-12-20T00:08:34;100968.88;;;7.89;100.00
81913;BME280;71377;50.698;7.164;2023-12-20T00:11:00;100962.91;;;7.81;100.00
81913;BME280;71377;50.698;7.164;2023-12-20T00:13:27;100966.22;;;7.92;100.00
81913;BME280;71377;50.698;7.164;2023-12-20T00:15:53;100956.78;;;7.83;100.00
81913;BME280;71377;50.698;7.164;2023-12-20T00:18:20;100956.47;;;8.00;100.00
81913;BME280;71377;50.698;7.164;2023-12-20T00:20:46;100955.94;;;7.81;100.00
81913;BME280;71377;50.698;7.164;2023-12-20T00:23:13;100964.69;;;7.82;100.00
81913;BME280;71377;50.698;7.164;2023-12-20T00:25:39;100961.91;;;7.88;100.00
81913;BME280;71377;50.698;7.164;2023-12-20T00:28:06;100971.63;;;7.81;100.00
81913;BME280;71377;50.698;7.164;2023-12-20T00:30:32;100968.31;;;7.73;100.00
81913;BME280;71377;50.698;7.164;2023-12-20T00:32:59;100965.44;;;7.87;100.00
81913;BME280;71377;50.698;7.164;2023-12-20T00:35:25;100961.19;;;7.80;100.00
81913;BME280;71377;50.698;7.164;2023-12-20T00:37:52;100965.75;;;7.70;100.00
81913;BME280;71377;50.698;7.164;2023-12-20T00:40:18;100968.38;;;7.69;100.00
81913;BME280;71377;50.698;7.164;2023-12-20T00:42:45;100964.97;;;7.65;100.00
81913;BME280;71377;50.698;7.164;2023-12-20T00:45:13;100967.44;;;7.73;100.00
81913;BME280;71377;50.698;7.164;2023-12-20T00:47:40;100963.97;;;7.71;100.00
81913;BME280;71377;50.698;7.164;2023-12-20T00:50:08;100968.16;;;7.82;100.00
81913;BME280;71377;50.698;7.164;2023-12-20T00:52:34;100955.25;;;7.73;100.00
81913;BME280;71377;50.698;7.164;2023-12-20T00:55:01;100969.91;;;7.82;100.00
81913;BME280;71377;50.698;7.164;2023-12-20T00:57:27;100959.28;;;7.89;100.00
81913;BME280;71377;50.698;7.164;2023-12-20T00:59:54;100965.19;;;7.99;100.00
81913;BME280;71377;50.698;7.164;2023-12-20T01:02:20;100965.94;;;8.06;100.00
81913;BME280;71377;50.698;7.164;2023-12-20T01:04:46;100956.84;;;8.23;100.00
81913;BME280;71377;50.698;7.164;2023-12-20T01:07:13;100956.13;;;8.15;100.00
81913;BME280;71377;50.698;7.164;2023-12-20T01:09:39;100968.03;;;8.32;100.00
81913;BME280;71377;50.698;7.164;2023-12-20T01:12:06;100966.75;;;8.53;100.00
81913;BME280;71377;50.698;7.164;2023-12-20T01:14:33;100966.75;;;8.51;100.00
81913;BME280;71377;50.698;7.164;2023-12-20T01:16:59;100979.38;;;8.31;100.00
81913;BME280;71377;50.698;7.164;2023-12-20T01:19:25;100985.44;;;8.36;100.00
81913;BME280;71377;50.698;7.164;2023-12-20T01:21:54;100988.81;;;8.41;100.00
81913;BME280;71377;50.698;7.164;2023-12-20T01:24:20;100989.47;;;8.50;100.00
81913;BME280;71377;50.698;7.164;2023-12-20T01:26:46;100990.41;;;8.48;100.00
81913;BME280;71377;50.698;7.164;2023-12-20T01:29:13;100984.41;;;8.41;100.00
81913;BME280;71377;50.698;7.164;2023-12-20T01:31:40;100987.91;;;8.43;100.00
81913;BME280;71377;50.698;7.164;2023-12-20T01:34:07;100983.72;;;8.35;100.00
81913;BME280;71377;50.698;7.164;2023-12-20T01:36:33;100980.44;;;8.22;100.00
81913;BME280;71377;50.698;7.164;2023-12-20T01:38:59;100993.63;;;8.16;100.00
81913;BME280;71377;50.698;7.164;2023-12-20T01:41:28;100990.88;;;8.23;100.00
81913;BME280;71377;50.698;7.164;2023-12-20T01:43:54;100991.63;;;8.30;100.00
81913;BME280;71377;50.698;7.164;2023-12-20T01:46:21;100993.28;;;8.33;100.00
81913;BME280;71377;50.698;7.164;2023-12-20T01:48:48;100992.41;;;8.34;100.00
81913;BME280;71377;50.698;7.164;2023-12-20T01:51:15;101012.84;;;8.15;100.00
81913;BME280;71377;50.698;7.164;2023-12-20T01:53:42;101018.56;;;8.34;100.00
81913;BME280;71377;50.698;7.164;2023-12-20T01:56:08;101015.13;;;8.32;100.00
81913;BME280;71377;50.698;7.164;2023-12-20T01:58:39;101016.44;;;8.11;100.00
81913;BME280;71377;50.698;7.164;2023-12-20T02:01:10;101016.03;;;8.31;100.00
81913;BME280;71377;50.698;7.164;2023-12-20T02:03:36;101024.16;;;8.15;100.00
81913;BME280;71377;50.698;7.164;2023-12-20T02:06:05;101019.06;;;8.09;100.00
81913;BME280;71377;50.698;7.164;2023-12-20T02:08:31;101031.13;;;8.16;100.00
81913;BME280;71377;50.698;7.164;2023-12-20T02:10:58;101027.56;;;8.20;100.00
81913;BME280;71377;50.698;7.164;2023-12-20T02:13:24;101037.13;;;8.23;100.00
81913;BME280;71377;50.698;7.164;2023-12-20T02:15:54;101028.59;;;8.13;100.00
81913;BME280;71377;50.698;7.164;2023-12-20T02:18:21;101040.00;;;8.09;100.00
81913;BME280;71377;50.698;7.164;2023-12-20T02:20:47;101038.97;;;8.18;100.00
81913;BME280;71377;50.698;7.164;2023-12-20T02:23:14;101035.50;;;8.17;99.27
81913;BME280;71377;50.698;7.164;2023-12-20T02:25:40;101046.25;;;8.02;100.00
81913;BME280;71377;50.698;7.164;2023-12-20T02:28:07;101041.59;;;8.16;97.86
81913;BME280;71377;50.698;7.164;2023-12-20T02:30:33;101051.19;;;8.16;93.76
81913;BME280;71377;50.698;7.164;2023-12-20T02:33:00;101059.41;;;7.96;92.01
81913;BME280;71377;50.698;7.164;2023-12-20T02:35:27;101066.63;;;7.83;92.75
81913;BME280;71377;50.698;7.164;2023-12-20T02:37:54;101069.66;;;7.59;93.89
81913;BME280;71377;50.698;7.164;2023-12-20T02:40:20;101062.88;;;7.47;93.66
81913;BME280;71377;50.698;7.164;2023-12-20T02:42:46;101071.66;;;7.43;93.08
81913;BME280;71377;50.698;7.164;2023-12-20T02:45:13;101076.91;;;7.42;93.49
81913;BME280;71377;50.698;7.164;2023-12-20T02:47:39;101076.91;;;7.42;93.50
81913;BME280;71377;50.698;7.164;2023-12-20T02:50:06;101090.44;;;7.08;95.53
81913;BME280;71377;50.698;7.164;2023-12-20T02:52:32;101088.53;;;7.19;94.32
81913;BME280;71377;50.698;7.164;2023-12-20T02:54:59;101085.28;;;7.05;94.50
81913;BME280;71377;50.698;7.164;2023-12-20T02:57:25;101086.97;;;7.07;94.33
81913;BME280;71377;50.698;7.164;2023-12-20T02:59:52;101100.06;;;7.06;94.43
81913;BME280;71377;50.698;7.164;2023-12-20T03:02:18;101105.31;;;7.04;93.38
81913;BME280;71377;50.698;7.164;2023-12-20T03:04:45;101111.53;;;6.93;94.26
81913;BME280;71377;50.698;7.164;2023-12-20T03:07:11;101099.31;;;6.96;95.62
81913;BME280;71377;50.698;7.164;2023-12-20T03:09:38;101107.88;;;7.07;92.38
81913;BME280;71377;50.698;7.164;2023-12-20T03:12:24;101100.78;;;7.17;92.69
81913;BME280;71377;50.698;7.164;2023-12-20T03:14:51;101086.28;;;6.93;92.90
81913;BME280;71377;50.698;7.164;2023-12-20T03:17:17;101091.56;;;6.90;93.03
81913;BME280;71377;50.698;7.164;2023-12-20T03:19:45;101094.13;;;6.93;94.03
81913;BME280;71377;50.698;7.164;2023-12-20T03:22:11;101093.38;;;6.87;94.06
81913;BME280;71377;50.698;7.164;2023-12-20T03:24:37;101097.47;;;7.03;93.02
81913;BME280;71377;50.698;7.164;2023-12-20T03:27:04;101098.31;;;7.06;91.73
81913;BME280;71377;50.698;7.164;2023-12-20T03:29:30;101095.09;;;6.85;93.34
81913;BME280;71377;50.698;7.164;2023-12-20T03:31:57;101097.56;;;6.98;91.79
81913;BME280;71377;50.698;7.164;2023-12-20T03:34:23;101088.88;;;6.96;92.12
81913;BME280;71377;50.698;7.164;2023-12-20T03:36:49;101087.16;;;6.94;93.61
81913;BME280;71377;50.698;7.164;2023-12-20T03:39:16;101087.91;;;7.05;91.88
81913;BME280;71377;50.698;7.164;2023-12-20T03:41:42;101079.38;;;6.91;91.88
81913;BME280;71377;50.698;7.164;2023-12-20T03:44:09;101083.59;;;6.99;91.51
81913;BME280;71377;50.698;7.164;2023-12-20T03:46:35;101078.25;;;7.08;91.67
81913;BME280;71377;50.698;7.164;2023-12-20T03:49:01;101085.88;;;7.24;91.03
81913;BME280;71377;50.698;7.164;2023-12-20T03:51:30;101087.56;;;7.28;90.75
81913;BME280;71377;50.698;7.164;2023-12-20T03:53:56;101091.09;;;7.24;90.92
81913;BME280;71377;50.698;7.164;2023-12-20T03:56:23;101089.63;;;7.03;91.61
81913;BME280;71377;50.698;7.164;2023-12-20T03:58:49;101089.09;;;6.79;93.27
81913;BME280;71377;50.698;7.164;2023-12-20T04:01:15;101080.28;;;6.88;92.91
81913;BME280;71377;50.698;7.164;2023-12-20T04:03:42;101087.91;;;7.02;92.39
81913;BME280;71377;50.698;7.164;2023-12-20T04:06:08;101089.16;;;7.36;90.75
81913;BME280;71377;50.698;7.164;2023-12-20T04:08:36;101094.81;;;7.07;90.80
81913;BME280;71377;50.698;7.164;2023-12-20T04:11:03;101090.44;;;7.09;90.54
81913;BME280;71377;50.698;7.164;2023-12-20T04:13:29;101091.19;;;7.18;90.59
81913;BME280;71377;50.698;7.164;2023-12-20T04:15:56;101090.16;;;7.28;89.44
81913;BME280;71377;50.698;7.164;2023-12-20T04:18:22;101081.97;;;6.92;91.58
81913;BME280;71377;50.698;7.164;2023-12-20T04:20:49;101094.28;;;6.81;93.50
81913;BME280;71377;50.698;7.164;2023-12-20T04:23:16;101096.50;;;7.13;91.65
81913;BME280;71377;50.698;7.164;2023-12-20T04:25:42;101084.03;;;7.32;89.43
81913;BME280;71377;50.698;7.164;2023-12-20T04:28:08;101091.94;;;7.26;89.39
81913;BME280;71377;50.698;7.164;2023-12-20T04:30:35;101091.94;;;7.26;89.37
81913;BME280;71377;50.698;7.164;2023-12-20T04:33:02;101081.53;;;7.23;89.28
81913;BME280;71377;50.698;7.164;2023-12-20T04:35:28;101083.59;;;6.99;90.98
81913;BME280;71377;50.698;7.164;2023-12-20T04:37:55;101080.97;;;7.01;90.39
81913;BME280;71377;50.698;7.164;2023-12-20T04:40:21;101075.81;;;6.95;91.07
81913;BME280;71377;50.698;7.164;2023-12-20T04:42:48;101071.47;;;6.94;91.37
81913;BME280;71377;50.698;7.164;2023-12-20T04:45:14;101075.38;;;7.27;89.77
81913;BME280;71377;50.698;7.164;2023-12-20T04:47:42;101092.03;;;7.20;89.91
81913;BME280;71377;50.698;7.164;2023-12-20T04:50:09;101093.91;;;7.10;91.62
81913;BME280;71377;50.698;7.164;2023-12-20T04:52:36;101090.44;;;7.09;90.61
81913;BME280;71377;50.698;7.164;2023-12-20T04:55:03;101098.16;;;7.17;90.46
81913;BME280;71377;50.698;7.164;2023-12-20T04:57:29;101098.13;;;7.19;90.36
81913;BME280;71377;50.698;7.164;2023-12-20T04:59:56;101104.09;;;7.30;88.70
81913;BME280;71377;50.698;7.164;2023-12-20T05:02:22;101094.94;;;6.98;91.08
81913;BME280;71377;50.698;7.164;2023-12-20T05:04:49;101092.38;;;6.95;92.87
81913;BME280;71377;50.698;7.164;2023-12-20T05:07:18;101096.09;;;7.41;89.56
81913;BME280;71377;50.698;7.164;2023-12-20T05:09:44;101100.84;;;7.11;91.90
81913;BME280;71377;50.698;7.164;2023-12-20T05:12:11;101092.16;;;7.11;92.11
81913;BME280;71377;50.698;7.164;2023-12-20T05:14:37;101091.25;;;7.15;91.75
81913;BME280;71377;50.698;7.164;2023-12-20T05:17:04;101102.66;;;7.07;91.43
81913;BME280;71377;50.698;7.164;2023-12-20T05:19:30;101096.81;;;6.89;89.71
81913;BME280;71377;50.698;7.164;2023-12-20T05:21:57;101099.59;;;6.75;91.34
81913;BME280;71377;50.698;7.164;2023-12-20T05:24:23;101101.84;;;7.02;90.73
81913;BME280;71377;50.698;7.164;2023-12-20T05:26:50;101097.56;;;6.97;91.61
81913;BME280;71377;50.698;7.164;2023-12-20T05:29:19;101084.41;;;7.04;88.70
81913;BME280;71377;50.698;7.164;2023-12-20T05:31:46;101082.88;;;6.90;90.75
81913;BME280;71377;50.698;7.164;2023-12-20T05:34:12;101075.81;;;6.96;90.45
81913;BME280;71377;50.698;7.164;2023-12-20T05:36:39;101094.44;;;6.69;92.89
81913;BME280;71377;50.698;7.164;2023-12-20T05:39:05;101091.84;;;6.67;93.03
81913;BME280;71377;50.698;7.164;2023-12-20T05:41:31;101102.91;;;6.86;90.25
81913;BME280;71377;50.698;7.164;2023-12-20T05:43:58;101099.16;;;7.08;89.88
81913;BME280;71377;50.698;7.164;2023-12-20T05:46:25;101090.78;;;6.84;90.31
81913;BME280;71377;50.698;7.164;2023-12-20T05:48:51;101097.69;;;6.89;90.53
81913;BME280;71377;50.698;7.164;2023-12-20T05:51:19;101109.94;;;6.83;91.69
81913;BME280;71377;50.698;7.164;2023-12-20T05:53:45;101117.09;;;6.67;91.69
81913;BME280;71377;50.698;7.164;2023-12-20T05:56:12;101120.28;;;6.92;90.45
81913;BME280;71377;50.698;7.164;2023-12-20T05:58:38;101120.34;;;6.87;89.72
81913;BME280;71377;50.698;7.164;2023-12-20T06:01:05;101107.53;;;6.66;91.74
81913;BME280;71377;50.698;7.164;2023-12-20T06:03:32;101105.56;;;6.85;89.11
81913;BME280;71377;50.698;7.164;2023-12-20T06:05:58;101100.44;;;6.75;90.74
81913;BME280;71377;50.698;7.164;2023-12-20T06:08:41;101108.25;;;6.80;90.04
81913;BME280;71377;50.698;7.164;2023-12-20T06:11:07;101106.31;;;6.93;89.53
81913;BME280;71377;50.698;7.164;2023-12-20T06:13:33;101103.78;;;6.88;90.24
81913;BME280;71377;50.698;7.164;2023-12-20T06:16:00;101112.22;;;7.08;89.08
81913;BME280;71377;50.698;7.164;2023-12-20T06:18:26;101119.34;;;6.96;89.45
81913;BME280;71377;50.698;7.164;2023-12-20T06:21:18;101109.66;;;7.05;88.87
81913;BME280;71377;50.698;7.164;2023-12-20T06:23:46;101110.75;;;6.86;90.02
81913;BME280;71377;50.698;7.164;2023-12-20T06:26:12;101109.66;;;7.02;89.42
81913;BME280;71377;50.698;7.164;2023-12-20T06:28:38;101124.56;;;6.97;89.22
81913;BME280;71377;50.698;7.164;2023-12-20T06:31:07;101114.28;;;6.82;89.80
81913;BME280;71377;50.698;7.164;2023-12-20T06:33:34;101115.00;;;6.96;89.15
81913;BME280;71377;50.698;7.164;2023-12-20T06:36:00;101111.53;;;6.96;89.05
81913;BME280;71377;50.698;7.164;2023-12-20T06:38:27;101114.13;;;6.94;88.57
81913;BME280;71377;50.698;7.164;2023-12-20T06:40:53;101112.19;;;7.10;88.63
81913;BME280;71377;50.698;7.164;2023-12-20T06:43:20;101113.00;;;7.15;88.06
81913;BME280;71377;50.698;7.164;2023-12-20T06:46:06;101103.69;;;6.96;88.52
81913;BME280;71377;50.698;7.164;2023-12-20T06:48:33;101110.50;;;7.06;86.63
81913;BME280;71377;50.698;7.164;2023-12-20T06:51:00;101115.88;;;6.94;87.93
81913;BME280;71377;50.698;7.164;2023-12-20T06:53:28;101110.00;;;6.78;89.53
81913;BME280;71377;50.698;7.164;2023-12-20T06:55:54;101119.97;;;7.15;88.08
81913;BME280;71377;50.698;7.164;2023-12-20T06:58:23;101113.03;;;7.11;87.00
81913;BME280;71377;50.698;7.164;2023-12-20T07:00:50;101120.13;;;7.02;87.73
81913;BME280;71377;50.698;7.164;2023-12-20T07:03:17;101124.19;;;7.25;86.82
81913;BME280;71377;50.698;7.164;2023-12-20T07:05:44;101125.06;;;7.24;87.40
81913;BME280;71377;50.698;7.164;2023-12-20T07:08:10;101127.69;;;7.24;86.48
81913;BME280;71377;50.698;7.164;2023-12-20T07:10:37;101129.44;;;7.23;86.13
81913;BME280;71377;50.698;7.164;2023-12-20T07:13:03;101123.28;;;7.26;87.99
81913;BME280;71377;50.698;7.164;2023-12-20T07:15:30;101130.09;;;7.39;86.32
81913;BME280;71377;50.698;7.164;2023-12-20T07:17:56;101132.44;;;7.57;85.38
81913;BME280;71377;50.698;7.164;2023-12-20T07:20:23;101133.19;;;7.65;85.42
81913;BME280;71377;50.698;7.164;2023-12-20T07:22:50;101133.53;;;7.41;85.06
81913;BME280;71377;50.698;7.164;2023-12-20T07:25:16;101129.16;;;7.42;85.33
81913;BME280;71377;50.698;7.164;2023-12-20T07:27:43;101133.59;;;7.36;84.71
81913;BME280;71377;50.698;7.164;2023-12-20T07:30:11;101132.81;;;7.31;84.65
81913;BME280;71377;50.698;7.164;2023-12-20T07:32:38;101133.56;;;7.38;84.84
81913;BME280;71377;50.698;7.164;2023-12-20T07:35:04;101138.91;;;7.32;84.79
81913;BME280;71377;50.698;7.164;2023-12-20T07:37:32;101133.66;;;7.32;84.51
81913;BME280;71377;50.698;7.164;2023-12-20T07:39:58;101137.50;;;7.06;86.14
81913;BME280;71377;50.698;7.164;2023-12-20T07:42:25;101137.50;;;7.06;86.01
81913;BME280;71377;50.698;7.164;2023-12-20T07:44:51;101142.06;;;6.89;86.90
81913;BME280;71377;50.698;7.164;2023-12-20T07:47:18;101148.44;;;7.34;84.67
81913;BME280;71377;50.698;7.164;2023-12-20T07:49:49;101132.84;;;7.27;83.65
81913;BME280;71377;50.698;7.164;2023-12-20T07:52:16;101137.94;;;7.37;82.51
81913;BME280;71377;50.698;7.164;2023-12-20T07:54:42;101143.34;;;7.25;82.87
81913;BME280;71377;50.698;7.164;2023-12-20T07:57:10;101148.47;;;7.33;82.57
81913;BME280;71377;50.698;7.164;2023-12-20T07:59:39;101139.78;;;7.31;82.83
81913;BME280;71377;50.698;7.164;2023-12-20T08:02:05;101138.00;;;7.33;83.45
81913;BME280;71377;50.698;7.164;2023-12-20T08:04:32;101133.63;;;7.35;83.57
81913;BME280;71377;50.698;7.164;2023-12-20T08:06:59;101144.81;;;7.45;81.26
81913;BME280;71377;50.698;7.164;2023-12-20T08:09:26;101143.97;;;7.43;81.59
81913;BME280;71377;50.698;7.164;2023-12-20T08:11:53;101142.28;;;7.40;81.95
81913;BME280;71377;50.698;7.164;2023-12-20T08:14:19;101150.00;;;7.48;80.85
81913;BME280;71377;50.698;7.164;2023-12-20T08:16:46;101154.41;;;7.44;80.48
81913;BME280;71377;50.698;7.164;2023-12-20T08:19:12;101145.06;;;7.26;81.93
81913;BME280;71377;50.698;7.164;2023-12-20T08:21:40;101146.59;;;7.43;80.87
81913;BME280;71377;50.698;7.164;2023-12-20T08:24:08;101146.88;;;7.23;81.87
81913;BME280;71377;50.698;7.164;2023-12-20T08:26:34;101150.75;;;7.56;79.40
81913;BME280;71377;50.698;7.164;2023-12-20T08:29:00;101161.06;;;7.63;79.43
81913;BME280;71377;50.698;7.164;2023-12-20T08:31:28;101158.47;;;7.65;79.86
81913;BME280;71377;50.698;7.164;2023-12-20T08:33:55;101154.13;;;7.62;78.53
81913;BME280;71377;50.698;7.164;2023-12-20T08:36:23;101160.34;;;7.54;80.38
81913;BME280;71377;50.698;7.164;2023-12-20T08:38:50;101156.22;;;7.39;81.08
81913;BME280;71377;50.698;7.164;2023-12-20T08:41:17;101148.72;;;7.75;79.66
81913;BME280;71377;50.698;7.164;2023-12-20T08:43:44;101151.38;;;7.72;79.04
81913;BME280;71377;50.698;7.164;2023-12-20T08:46:11;101143.09;;;7.42;80.45
81913;BME280;71377;50.698;7.164;2023-12-20T08:48:39;101120.09;;;7.65;79.05
81913;BME280;71377;50.698;7.164;2023-12-20T08:51:05;101127.94;;;7.65;78.49
81913;BME280;71377;50.698;7.164;2023-12-20T08:53:36;101129.72;;;7.65;78.87
81913;BME280;71377;50.698;7.164;2023-12-20T08:56:03;101121.09;;;7.58;79.66
81913;BME280;71377;50.698;7.164;2023-12-20T08:58:29;101123.09;;;7.41;79.74
81913;BME280;71377;50.698;7.164;2023-12-20T09:00:56;101130.53;;;7.67;78.25
81913;BME280;71377;50.698;7.164;2023-12-20T09:03:24;101130.53;;;7.67;78.50
81913;BME280;71377;50.698;7.164;2023-12-20T09:05:50;101127.72;;;7.79;77.21
81913;BME280;71377;50.698;7.164;2023-12-20T09:08:17;101134.81;;;7.71;77.44
81913;BME280;71377;50.698;7.164;2023-12-20T09:10:43;101135.63;;;7.76;77.53
81913;BME280;71377;50.698;7.164;2023-12-20T09:13:10;101136.41;;;7.83;75.96
81913;BME280;71377;50.698;7.164;2023-12-20T09:15:37;101132.88;;;7.84;76.23
81913;BME280;71377;50.698;7.164;2023-12-20T09:18:03;101139.53;;;8.03;75.76
81913;BME280;71377;50.698;7.164;2023-12-20T09:20:30;101139.03;;;7.80;76.38
81913;BME280;71377;50.698;7.164;2023-12-20T09:22:57;101151.66;;;8.07;76.42
81913;BME280;71377;50.698;7.164;2023-12-20T09:25:24;101148.47;;;7.90;75.76
81913;BME280;71377;50.698;7.164;2023-12-20T09:27:52;101158.78;;;7.99;74.47
81913;BME280;71377;50.698;7.164;2023-12-20T09:30:19;101153.81;;;7.84;75.80
81913;BME280;71377;50.698;7.164;2023-12-20T09:32:56;101141.16;;;8.10;74.76
81913;BME280;71377;50.698;7.164;2023-12-20T09:35:22;101144.09;;;7.92;75.82
81913;BME280;71377;50.698;7.164;2023-12-20T09:37:49;101143.84;;;8.06;74.81
81913;BME280;71377;50.698;7.164;2023-12-20T09:40:18;101148.03;;;8.16;74.65
81913;BME280;71377;50.698;7.164;2023-12-20T09:42:51;101145.25;;;8.25;75.09
81913;BME280;71377;50.698;7.164;2023-12-20T09:45:23;101153.13;;;8.23;73.84
81913;BME280;71377;50.698;7.164;2023-12-20T09:47:53;101146.41;;;8.10;74.73
81913;BME280;71377;50.698;7.164;2023-12-20T09:50:21;101142.56;;;8.30;74.80
81913;BME280;71377;50.698;7.164;2023-12-20T09:52:52;101141.75;;;8.25;73.95
81913;BME280;71377;50.698;7.164;2023-12-20T09:55:20;101135.88;;;8.13;73.53
81913;BME280;71377;50.698;7.164;2023-12-20T09:57:49;101136.97;;;7.99;74.71
81913;BME280;71377;50.698;7.164;2023-12-20T10:00:16;101131.00;;;7.90;76.03
81913;BME280;71377;50.698;7.164;2023-12-20T10:02:59;101135.97;;;8.09;74.73
81913;BME280;71377;50.698;7.164;2023-12-20T10:05:28;101131.50;;;8.14;74.59
81913;BME280;71377;50.698;7.164;2023-12-20T10:07:56;101137.13;;;7.89;75.69
81913;BME280;71377;50.698;7.164;2023-12-20T10:10:23;101134.31;;;8.03;75.06
81913;BME280;71377;50.698;7.164;2023-12-20T10:15:30;101126.97;;;8.23;75.37
81913;BME280;71377;50.698;7.164;2023-12-20T10:17:57;101128.97;;;8.09;76.02
81913;BME280;71377;50.698;7.164;2023-12-20T10:20:28;101128.28;;;7.97;76.43
81913;BME280;71377;50.698;7.164;2023-12-20T10:22:58;101120.25;;;8.09;75.36
81913;BME280;71377;50.698;7.164;2023-12-20T10:25:26;101122.03;;;8.08;76.13
81913;BME280;71377;50.698;7.164;2023-12-20T10:28:26;101120.09;;;8.16;74.73
81913;BME280;71377;50.698;7.164;2023-12-20T10:30:55;101116.81;;;8.05;76.01
81913;BME280;71377;50.698;7.164;2023-12-20T10:33:28;101117.97;;;7.89;76.63
81913;BME280;71377;50.698;7.164;2023-12-20T10:35:55;101115.16;;;8.01;75.70
81913;BME280;71377;50.698;7.164;2023-12-20T10:38:22;101101.09;;;8.08;76.40
81913;BME280;71377;50.698;7.164;2023-12-20T10:40:54;101099.25;;;8.12;76.41
81913;BME280;71377;50.698;7.164;2023-12-20T10:43:24;101101.69;;;8.22;75.43
81913;BME280;71377;50.698;7.164;2023-12-20T10:45:52;101094.06;;;8.10;76.00
81913;BME280;71377;50.698;7.164;2023-12-20T10:48:19;101089.69;;;8.11;76.58
81913;BME280;71377;50.698;7.164;2023-12-20T10:50:47;101094.63;;;8.28;74.91
81913;BME280;71377;50.698;7.164;2023-12-20T10:53:16;101084.28;;;8.20;76.08
81913;BME280;71377;50.698;7.164;2023-12-20T10:55:43;101084.31;;;8.18;76.11
81913;BME280;71377;50.698;7.164;2023-12-20T10:58:11;101083.53;;;8.13;76.26
81913;BME280;71377;50.698;7.164;2023-12-20T11:00:40;101083.53;;;8.13;76.12
81913;BME280;71377;50.698;7.164;2023-12-20T11:03:11;101064.97;;;8.27;76.32
81913;BME280;71377;50.698;7.164;2023-12-20T11:05:51;101063.06;;;8.34;75.89
81913;BME280;71377;50.698;7.164;2023-12-20T11:08:35;101057.19;;;8.22;76.06
81913;BME280;71377;50.698;7.164;2023-12-20T11:13:57;101063.84;;;8.40;75.56
81913;BME280;71377;50.698;7.164;2023-12-20T11:16:24;101071.81;;;8.36;75.01
81913;BME280;71377;50.698;7.164;2023-12-20T11:18:55;101072.63;;;8.38;76.38
81913;BME280;71377;50.698;7.164;2023-12-20T11:21:21;101076.84;;;8.46;75.73
81913;BME280;71377;50.698;7.164;2023-12-20T11:23:48;101075.00;;;8.50;76.32
81913;BME280;71377;50.698;7.164;2023-12-20T11:26:22;101070.63;;;8.52;75.16
81913;BME280;71377;50.698;7.164;2023-12-20T11:28:49;101075.47;;;8.24;75.60
81913;BME280;71377;50.698;7.164;2023-12-20T11:31:15;101064.06;;;8.28;75.99
81913;BME280;71377;50.698;7.164;2023-12-20T11:33:42;101071.97;;;8.25;77.53
81913;BME280;71377;50.698;7.164;2023-12-20T11:36:19;101079.66;;;8.36;75.31
81913;BME280;71377;50.698;7.164;2023-12-20T11:38:56;101073.06;;;8.13;76.61
81913;BME280;71377;50.698;7.164;2023-12-20T11:41:23;101072.72;;;8.32;76.02
81913;BME280;71377;50.698;7.164;2023-12-20T11:43:53;101077.75;;;8.44;76.20
81913;BME280;71377;50.698;7.164;2023-12-20T11:46:20;101085.47;;;8.50;76.08
81913;BME280;71377;50.698;7.164;2023-12-20T11:48:47;101076.72;;;8.53;75.48
81913;BME280;71377;50.698;7.164;2023-12-20T11:51:15;101066.88;;;8.19;76.74
81913;BME280;71377;50.698;7.164;2023-12-20T11:53:41;101075.88;;;8.50;75.75
81913;BME280;71377;50.698;7.164;2023-12-20T11:56:11;101074.88;;;8.56;74.92
81913;BME280;71377;50.698;7.164;2023-12-20T11:58:38;101069.75;;;8.52;74.86
81913;BME280;71377;50.698;7.164;2023-12-20T12:01:05;101064.69;;;8.42;75.83
81913;BME280;71377;50.698;7.164;2023-12-20T12:03:35;101065.75;;;8.31;76.76
81913;BME280;71377;50.698;7.164;2023-12-20T12:06:02;101056.94;;;8.38;75.84
81913;BME280;71377;50.698;7.164;2023-12-20T12:08:31;101056.63;;;8.53;75.52
81913;BME280;71377;50.698;7.164;2023-12-20T12:10:57;101054.66;;;8.64;73.78
81913;BME280;71377;50.698;7.164;2023-12-20T12:13:24;101055.53;;;8.63;73.99
81913;BME280;71377;50.698;7.164;2023-12-20T12:15:53;101039.28;;;8.47;74.10
81913;BME280;71377;50.698;7.164;2023-12-20T12:18:20;101041.22;;;8.80;73.15
81913;BME280;71377;50.698;7.164;2023-12-20T12:20:46;101029.47;;;8.57;75.11
81913;BME280;71377;50.698;7.164;2023-12-20T12:23:13;101038.00;;;8.67;74.16
81913;BME280;71377;50.698;7.164;2023-12-20T12:25:40;101030.56;;;8.89;73.54
81913;BME280;71377;50.698;7.164;2023-12-20T12:28:09;101024.00;;;8.68;74.65
81913;BME280;71377;50.698;7.164;2023-12-20T12:30:36;101028.06;;;8.83;73.39
81913;BME280;71377;50.698;7.164;2023-12-20T12:33:11;101031.50;;;8.86;73.41
81913;BME280;71377;50.698;7.164;2023-12-20T12:35:40;101011.53;;;8.81;73.80
81913;BME280;71377;50.698;7.164;2023-12-20T12:38:07;101006.66;;;8.64;75.40
81913;BME280;71377;50.698;7.164;2023-12-20T12:40:34;101003.34;;;8.56;75.47
81913;BME280;71377;50.698;7.164;2023-12-20T12:43:02;101002.50;;;8.54;74.66
81913;BME280;71377;50.698;7.164;2023-12-20T12:45:29;100996.75;;;8.76;74.89
81913;BME280;71377;50.698;7.164;2023-12-20T12:47:55;100998.88;;;8.61;75.12
81913;BME280;71377;50.698;7.164;2023-12-20T12:50:23;100999.94;;;8.50;76.23
81913;BME280;71377;50.698;7.164;2023-12-20T12:52:50;100994.41;;;8.64;74.99
81913;BME280;71377;50.698;7.164;2023-12-20T12:55:16;101000.44;;;8.68;75.57
81913;BME280;71377;50.698;7.164;2023-12-20T12:57:43;101004.31;;;8.52;75.43
81913;BME280;71377;50.698;7.164;2023-12-20T13:00:11;100995.31;;;8.63;74.99
81913;BME280;71377;50.698;7.164;2023-12-20T13:02:37;101000.75;;;8.54;75.23
81913;BME280;71377;50.698;7.164;2023-12-20T13:05:09;100992.13;;;8.49;76.69